createdAt,value
2018-10-17T00:00:14.113Z,17.37
2018-10-17T00:02:42.846Z,16.43
2018-10-17T00:05:11.100Z,16.50
2018-10-17T00:07:39.756Z,15.43
2018-10-17T00:10:09.645Z,14.30
2018-10-17T00:12:38.109Z,16.60
2018-10-17T00:15:06.768Z,15.40
2018-10-17T00:17:35.009Z,17.13
2018-10-17T00:20:03.313Z,15.70
2018-10-17T00:22:31.523Z,17.63
2018-10-17T00:24:59.747Z,16.33
2018-10-17T00:27:28.334Z,15.83
2018-10-17T00:29:56.569Z,15.00
2018-10-17T00:32:24.797Z,15.05
2018-10-17T00:34:53.071Z,15.90
2018-10-17T00:37:24.165Z,13.72
2018-10-17T00:39:52.364Z,13.37
2018-10-17T00:42:20.616Z,13.13
2018-10-17T00:44:49.276Z,13.00
2018-10-17T00:47:17.485Z,14.50
2018-10-17T00:49:45.706Z,13.90
2018-10-17T00:52:13.961Z,16.00
2018-10-17T00:54:42.193Z,14.77
2018-10-17T00:57:10.352Z,15.23
2018-10-17T00:59:42.862Z,15.40
2018-10-17T01:02:14.102Z,15.20
2018-10-17T01:04:42.229Z,13.40
2018-10-17T01:07:10.547Z,15.43
2018-10-17T01:09:38.680Z,11.85
2018-10-17T01:12:06.910Z,12.60
2018-10-17T01:14:35.077Z,11.75
2018-10-17T01:17:04.705Z,13.35
2018-10-17T01:19:32.844Z,13.20
2018-10-17T01:22:01.267Z,13.97
2018-10-17T01:24:29.444Z,12.70
2018-10-17T01:26:57.633Z,13.00
2018-10-17T01:29:29.776Z,13.23
2018-10-17T01:31:58.077Z,16.03
2018-10-17T01:34:26.282Z,14.37
2018-10-17T01:36:54.503Z,15.40
2018-10-17T01:39:22.944Z,15.20
2018-10-17T01:41:51.128Z,17.40
2018-10-17T01:44:19.360Z,16.67
2018-10-17T01:46:47.620Z,16.37
2018-10-17T01:49:15.895Z,16.70
2018-10-17T01:51:44.095Z,18.90
2018-10-17T01:54:12.260Z,17.50
2018-10-17T01:56:40.511Z,16.90
2018-10-17T01:59:08.733Z,16.07
2018-10-17T02:01:36.911Z,15.87
2018-10-17T02:04:05.243Z,16.50
2018-10-17T02:06:33.391Z,16.80
2018-10-17T02:09:01.643Z,17.63
2018-10-17T02:11:30.275Z,17.67
2018-10-17T02:13:58.452Z,19.50
2018-10-17T02:16:28.056Z,16.23
2018-10-17T02:18:56.345Z,16.90
2018-10-17T02:21:24.516Z,16.60
2018-10-17T02:23:52.888Z,14.68
2018-10-17T02:26:21.102Z,15.93
2018-10-17T02:28:49.309Z,12.88
2018-10-17T02:31:17.670Z,14.85
2018-10-17T02:33:45.839Z,15.13
2018-10-17T02:36:14.069Z,14.90
2018-10-17T02:38:42.243Z,15.50
2018-10-17T02:41:10.516Z,16.83
2018-10-17T02:43:38.692Z,15.18
2018-10-17T02:46:06.892Z,16.40
2018-10-17T02:48:35.120Z,15.90
2018-10-17T02:51:03.329Z,16.00
2018-10-17T02:53:31.749Z,16.55
2018-10-17T02:56:00.017Z,15.27
2018-10-17T02:58:28.224Z,15.50
2018-10-17T03:00:56.422Z,15.67
2018-10-17T03:03:27.569Z,14.80
2018-10-17T03:05:56.637Z,13.33
2018-10-17T03:08:24.857Z,15.40
2018-10-17T03:10:53.110Z,15.25
2018-10-17T03:15:58.256Z,15.35
2018-10-17T03:18:26.496Z,14.93
2018-10-17T03:20:54.695Z,16.77
2018-10-17T03:23:23.524Z,16.52
2018-10-17T03:25:52.425Z,15.63
2018-10-17T03:28:20.669Z,16.50
2018-10-17T03:30:49.017Z,17.52
2018-10-17T03:33:20.619Z,17.17
2018-10-17T03:35:48.951Z,17.40
2018-10-17T03:38:17.640Z,18.92
2018-10-17T03:40:46.060Z,19.80
2018-10-17T03:43:14.363Z,18.17
2018-10-17T03:45:42.459Z,19.47
2018-10-17T03:48:18.524Z,14.70
2018-10-17T03:50:46.735Z,17.57
2018-10-17T03:53:14.999Z,15.15
2018-10-17T03:55:43.116Z,15.68
2018-10-17T03:58:11.301Z,16.27
2018-10-17T04:00:39.508Z,16.50
2018-10-17T04:03:10.550Z,16.87
2018-10-17T04:05:38.689Z,15.03
2018-10-17T04:08:06.975Z,13.25
2018-10-17T04:10:38.078Z,15.63
2018-10-17T04:13:06.366Z,16.93
2018-10-17T04:15:34.504Z,18.48
2018-10-17T04:18:05.980Z,16.17
2018-10-17T04:20:34.176Z,15.85
2018-10-17T04:23:03.411Z,14.83
2018-10-17T04:25:31.612Z,18.52
2018-10-17T04:27:59.781Z,18.07
2018-10-17T04:30:28.329Z,19.10
2018-10-17T04:33:00.868Z,16.43
2018-10-17T04:35:29.078Z,17.33
2018-10-17T04:37:57.384Z,16.20
2018-10-17T04:40:25.568Z,19.20
2018-10-17T04:42:53.768Z,16.90
2018-10-17T04:45:21.963Z,18.03
2018-10-17T04:47:50.137Z,17.50
2018-10-17T04:50:18.363Z,17.60
2018-10-17T04:52:46.604Z,17.47
2018-10-17T04:55:15.739Z,18.27
2018-10-17T04:57:43.848Z,16.30
2018-10-17T05:00:13.480Z,15.50
2018-10-17T05:02:43.104Z,15.93
2018-10-17T05:05:11.885Z,17.27
2018-10-17T05:07:40.021Z,18.27
2018-10-17T05:10:08.273Z,19.40
2018-10-17T05:12:36.496Z,19.40
2018-10-17T05:15:05.112Z,19.53
2018-10-17T05:17:33.312Z,16.23
2018-10-17T05:20:01.769Z,17.65
2018-10-17T05:22:29.959Z,18.35
2018-10-17T05:24:58.502Z,19.23
2018-10-17T05:27:27.460Z,16.77
2018-10-17T05:29:55.798Z,17.98
2018-10-17T05:32:23.915Z,21.20
2018-10-17T05:34:52.388Z,18.32
2018-10-17T05:37:20.708Z,16.82
2018-10-17T05:39:48.816Z,17.30
2018-10-17T05:42:17.167Z,17.83
2018-10-17T05:44:45.325Z,17.10
2018-10-17T05:47:13.620Z,17.80
2018-10-17T05:49:45.650Z,17.25
2018-10-17T05:52:13.869Z,18.87
2018-10-17T05:54:42.257Z,17.42
2018-10-17T05:57:10.481Z,18.57
2018-10-17T05:59:38.740Z,19.25
2018-10-17T06:02:17.160Z,18.37
2018-10-17T06:04:49.726Z,18.23
2018-10-17T06:07:17.966Z,19.20
2018-10-17T06:09:46.244Z,17.43
2018-10-17T06:12:14.501Z,16.17
2018-10-17T06:14:42.751Z,17.98
2018-10-17T06:17:11.010Z,17.03
2018-10-17T06:19:51.444Z,19.10
2018-10-17T06:22:19.686Z,18.52
2018-10-17T06:24:47.848Z,19.90
2018-10-17T06:27:16.028Z,18.32
2018-10-17T06:29:44.248Z,17.50
2018-10-17T06:32:12.468Z,18.90
2018-10-17T06:34:40.785Z,21.00
2018-10-17T06:37:09.827Z,19.57
2018-10-17T06:39:38.061Z,20.53
2018-10-17T06:42:06.539Z,19.00
2018-10-17T06:44:35.211Z,17.82
2018-10-17T06:47:03.522Z,18.37
2018-10-17T06:49:31.737Z,18.23
2018-10-17T06:51:59.961Z,18.30
2018-10-17T06:54:28.339Z,19.00
2018-10-17T06:56:56.513Z,19.30
2018-10-17T06:59:24.703Z,18.30
2018-10-17T07:01:53.016Z,20.80
2018-10-17T07:04:21.154Z,18.43
2018-10-17T07:06:49.396Z,17.53
2018-10-17T07:09:17.648Z,19.63
2018-10-17T07:11:45.870Z,20.00
2018-10-17T07:14:14.039Z,19.53
2018-10-17T07:16:42.256Z,19.10
2018-10-17T07:19:10.532Z,17.40
2018-10-17T07:21:38.755Z,18.87
2018-10-17T07:24:06.943Z,21.07
2018-10-17T07:26:35.213Z,22.00
2018-10-17T07:29:03.630Z,19.90
2018-10-17T07:31:32.538Z,20.00
2018-10-17T07:34:00.740Z,23.87
2018-10-17T07:36:28.992Z,21.83
2018-10-17T07:38:58.117Z,20.53
2018-10-17T07:41:26.325Z,18.43
2018-10-17T07:43:54.519Z,21.13
2018-10-17T07:46:22.704Z,20.55
2018-10-17T07:48:50.903Z,20.30
2018-10-17T07:51:21.955Z,21.77
2018-10-17T07:53:50.219Z,20.17
2018-10-17T07:56:18.445Z,19.93
2018-10-17T08:03:41.089Z,19.60
2018-10-17T08:06:12.452Z,24.20
2018-10-17T08:08:40.597Z,20.70
2018-10-17T08:11:08.794Z,22.00
2018-10-17T08:13:37.082Z,23.00
2018-10-17T08:16:05.369Z,22.70
2018-10-17T08:18:33.601Z,19.93
2018-10-17T08:21:02.030Z,22.00
2018-10-17T08:23:30.214Z,22.50
2018-10-17T08:25:58.500Z,20.72
2018-10-17T08:28:26.816Z,21.20
2018-10-17T08:30:55.061Z,26.47
2018-10-17T08:33:23.276Z,24.37
2018-10-17T08:35:51.665Z,24.67
2018-10-17T08:38:24.200Z,21.73
2018-10-17T08:40:52.460Z,23.27
2018-10-17T08:43:20.653Z,25.15
2018-10-17T08:45:48.914Z,24.33
2018-10-17T08:48:17.165Z,23.80
2018-10-17T08:50:45.474Z,25.73
2018-10-17T08:53:17.373Z,22.00
2018-10-17T08:55:45.601Z,25.07
2018-10-17T08:58:13.871Z,22.90
2018-10-17T09:00:42.100Z,24.25
2018-10-17T09:03:10.328Z,23.50
2018-10-17T09:05:38.588Z,28.03
2018-10-17T09:08:10.029Z,26.00
2018-10-17T09:10:38.188Z,27.33
2018-10-17T09:13:06.665Z,23.60
2018-10-17T09:15:38.380Z,25.30
2018-10-17T09:18:03.134Z,26.60
2018-10-17T09:20:32.047Z,24.20
2018-10-17T09:23:00.048Z,25.80
2018-10-17T09:25:28.268Z,24.75
2018-10-17T09:27:56.597Z,25.30
2018-10-17T09:30:24.786Z,27.80
2018-10-17T09:32:52.948Z,24.83
2018-10-17T09:35:21.325Z,26.30
2018-10-17T09:37:49.404Z,27.27
2018-10-17T09:40:18.074Z,27.32
2018-10-17T09:42:46.249Z,25.97
2018-10-17T09:45:14.540Z,26.80
2018-10-17T09:47:42.720Z,25.30
2018-10-17T09:50:11.228Z,26.53
2018-10-17T09:52:39.538Z,28.13
2018-10-17T09:55:08.312Z,28.03
2018-10-17T09:57:36.532Z,28.20
2018-10-17T10:00:11.696Z,26.40
2018-10-17T10:02:39.813Z,27.23
2018-10-17T10:05:08.040Z,28.67
2018-10-17T10:07:36.219Z,25.63
2018-10-17T10:10:04.719Z,26.73
2018-10-17T10:12:32.914Z,25.72
2018-10-17T10:15:01.139Z,25.80
2018-10-17T10:17:29.467Z,29.30
2018-10-17T10:19:57.667Z,28.43
2018-10-17T10:22:25.877Z,27.93
2018-10-17T10:24:54.193Z,28.27
2018-10-17T10:27:22.293Z,28.17
2018-10-17T10:29:50.604Z,27.65
2018-10-17T10:32:18.769Z,28.87
2018-10-17T10:34:47.094Z,26.37
2018-10-17T10:37:15.360Z,27.33
2018-10-17T10:39:43.577Z,29.13
2018-10-17T10:42:11.855Z,29.17
2018-10-17T10:44:40.014Z,27.80
2018-10-17T10:47:08.516Z,29.13
2018-10-17T10:49:36.735Z,27.13
2018-10-17T10:52:05.189Z,27.10
2018-10-17T10:54:33.403Z,28.17
2018-10-17T10:57:01.687Z,27.47
2018-10-17T10:59:30.103Z,25.67
2018-10-17T11:01:58.164Z,25.93
2018-10-17T11:04:26.414Z,28.37
2018-10-17T11:06:54.571Z,29.87
2018-10-17T11:09:22.840Z,29.63
2018-10-17T11:11:51.068Z,28.10
2018-10-17T11:14:19.420Z,29.17
2018-10-17T11:16:47.468Z,28.87
2018-10-17T11:19:15.657Z,29.30
2018-10-17T11:21:43.898Z,29.48
2018-10-17T11:24:12.212Z,29.13
2018-10-17T11:26:40.555Z,30.03
2018-10-17T11:29:08.906Z,28.15
2018-10-17T11:31:37.231Z,27.53
2018-10-17T11:34:05.460Z,28.80
2018-10-17T11:36:34.053Z,29.73
2018-10-17T11:39:02.684Z,30.05
2018-10-17T11:41:30.836Z,29.43
2018-10-17T11:43:59.103Z,31.23
2018-10-17T11:46:27.737Z,28.00
2018-10-17T11:48:55.956Z,28.47
2018-10-17T11:51:24.239Z,27.73
2018-10-17T11:53:52.531Z,24.40
2018-10-17T11:56:20.823Z,22.63
2018-10-17T11:58:49.086Z,23.40
2018-10-17T12:01:17.289Z,22.90
2018-10-17T12:03:45.652Z,24.87
2018-10-17T12:06:13.861Z,23.87
2018-10-17T12:08:42.042Z,21.30
2018-10-17T12:11:10.251Z,22.20
2018-10-17T12:13:38.605Z,23.23
2018-10-17T12:16:06.907Z,21.27
2018-10-17T12:18:35.109Z,22.47
2018-10-17T12:21:03.380Z,21.50
2018-10-17T12:23:31.543Z,19.43
2018-10-17T12:26:04.497Z,19.17
2018-10-17T12:28:32.805Z,19.23
2018-10-17T12:31:01.619Z,18.90
2018-10-17T12:33:29.820Z,18.40
2018-10-17T12:35:58.019Z,19.27
2018-10-17T12:38:26.259Z,18.90
2018-10-17T12:40:59.239Z,19.40
2018-10-17T12:43:27.293Z,16.53
2018-10-17T12:45:55.589Z,19.27
2018-10-17T12:48:23.795Z,16.67
2018-10-17T12:50:52.119Z,17.87
2018-10-17T12:53:20.443Z,15.93
2018-10-17T12:55:48.664Z,17.80
2018-10-17T12:58:16.904Z,15.08
2018-10-17T13:00:45.101Z,15.70
2018-10-17T13:03:13.303Z,16.23
2018-10-17T13:05:41.574Z,15.23
2018-10-17T13:08:09.824Z,16.83
2018-10-17T13:10:38.037Z,16.70
2018-10-17T13:13:06.354Z,14.40
2018-10-17T13:15:34.560Z,13.90
2018-10-17T13:18:02.829Z,15.70
2018-10-17T13:20:31.032Z,16.30
2018-10-17T13:22:59.306Z,16.30
2018-10-17T13:25:27.526Z,13.62
2018-10-17T13:27:55.736Z,16.63
2018-10-17T13:30:23.968Z,17.40
2018-10-17T13:32:52.193Z,17.97
2018-10-17T13:35:20.422Z,15.20
2018-10-17T13:37:48.645Z,20.00
2018-10-17T13:40:16.850Z,20.30
2018-10-17T13:42:48.974Z,20.17
2018-10-17T13:45:17.329Z,18.77
2018-10-17T13:47:45.614Z,20.57
2018-10-17T13:50:16.751Z,16.77
2018-10-17T13:52:45.492Z,20.92
2018-10-17T13:55:13.816Z,21.10
2018-10-17T13:57:46.227Z,19.50
2018-10-17T14:00:14.433Z,20.43
2018-10-17T14:02:43.536Z,20.53
2018-10-17T14:05:11.781Z,17.90
2018-10-17T14:07:41.310Z,18.50
2018-10-17T14:10:09.544Z,20.20
2018-10-17T14:12:38.155Z,20.43
2018-10-17T14:15:06.539Z,20.27
2018-10-17T14:17:34.688Z,17.57
2018-10-17T14:20:02.937Z,16.70
2018-10-17T14:22:31.123Z,17.35
2018-10-17T14:24:59.460Z,18.20
2018-10-17T14:27:32.160Z,18.32
2018-10-17T14:30:01.355Z,18.57
2018-10-17T14:32:29.633Z,18.03
2018-10-17T14:34:57.914Z,19.10
2018-10-17T14:37:26.299Z,19.17
2018-10-17T14:39:54.524Z,17.33
2018-10-17T14:42:22.739Z,15.93
2018-10-17T14:44:54.648Z,14.80
2018-10-17T14:47:25.812Z,12.90
2018-10-17T14:49:53.999Z,14.40
2018-10-17T14:52:22.269Z,13.78
2018-10-17T14:54:50.480Z,14.73
2018-10-17T14:57:18.713Z,16.63
2018-10-17T14:59:50.716Z,13.32
2018-10-17T15:02:18.956Z,16.45
2018-10-17T15:04:47.164Z,16.47
2018-10-17T15:07:15.415Z,16.40
2018-10-17T15:09:43.733Z,15.95
2018-10-17T15:12:11.925Z,18.13
2018-10-17T15:14:40.340Z,17.17
2018-10-17T15:17:08.600Z,16.50
2018-10-17T15:19:36.815Z,17.25
2018-10-17T15:22:05.125Z,16.80
2018-10-17T15:24:33.452Z,16.20
2018-10-17T15:27:01.732Z,15.27
2018-10-17T15:29:33.806Z,15.13
2018-10-17T15:32:03.143Z,16.30
2018-10-17T15:34:31.436Z,16.40
2018-10-17T15:36:59.786Z,18.77
2018-10-17T15:39:27.942Z,17.80
2018-10-17T15:41:56.646Z,17.25
2018-10-17T15:44:28.692Z,17.43
2018-10-17T15:46:56.928Z,18.27
2018-10-17T15:49:25.198Z,15.50
2018-10-17T15:51:53.383Z,14.93
2018-10-17T15:54:21.631Z,14.77
2018-10-17T15:56:49.917Z,15.37
2018-10-17T15:59:22.087Z,15.58
2018-10-17T16:01:50.394Z,17.37
2018-10-17T16:04:18.669Z,19.00
2018-10-17T16:06:47.113Z,17.13
2018-10-17T16:09:16.290Z,16.10
2018-10-17T16:11:44.614Z,15.27
2018-10-17T16:14:19.186Z,15.10
2018-10-17T16:16:47.676Z,15.34
2018-10-17T16:19:15.878Z,15.68
2018-10-17T16:21:44.137Z,15.00
2018-10-17T16:24:12.482Z,16.00
2018-10-17T16:26:40.564Z,15.60
2018-10-17T16:29:08.784Z,16.37
2018-10-17T16:31:37.025Z,17.60
2018-10-17T16:34:05.341Z,15.58
2018-10-17T16:36:33.660Z,15.55
2018-10-17T16:39:01.896Z,16.17
2018-10-17T16:41:30.231Z,17.80
2018-10-17T16:43:58.371Z,16.87
2018-10-17T16:46:26.611Z,18.33
2018-10-17T16:48:54.869Z,17.60
2018-10-17T16:51:23.205Z,16.25
2018-10-17T16:53:51.483Z,17.77
2018-10-17T16:56:19.700Z,21.48
2018-10-17T16:58:48.043Z,18.90
2018-10-17T17:01:19.228Z,17.87
2018-10-17T17:03:47.398Z,20.48
2018-10-17T17:06:16.313Z,17.72
2018-10-17T17:08:44.423Z,17.97
2018-10-17T17:11:12.772Z,17.90
2018-10-17T17:13:40.969Z,18.75
2018-10-17T17:16:09.204Z,17.75
2018-10-17T17:18:37.400Z,17.27
2018-10-17T17:21:05.890Z,17.35
2018-10-17T17:23:34.029Z,21.87
2018-10-17T17:26:02.297Z,18.80
2018-10-17T17:28:30.532Z,19.10
2018-10-17T17:30:58.733Z,18.30
2018-10-17T17:33:26.930Z,18.60
2018-10-17T17:35:55.190Z,19.10
2018-10-17T17:38:23.408Z,20.50
2018-10-17T17:40:51.579Z,18.82
2018-10-17T17:43:19.854Z,20.77
2018-10-17T17:45:52.069Z,23.65
2018-10-17T17:48:20.260Z,18.82
2018-10-17T17:50:48.472Z,19.60
2018-10-17T17:53:16.661Z,20.13
2018-10-17T17:55:44.999Z,20.92
2018-10-17T17:58:13.353Z,19.20
2018-10-17T18:00:41.566Z,20.68
2018-10-17T18:03:09.782Z,20.40
2018-10-17T18:05:38.007Z,21.97
2018-10-17T18:08:06.233Z,20.72
2018-10-17T18:10:34.469Z,19.95
2018-10-17T18:13:03.163Z,21.57
2018-10-17T18:15:31.380Z,21.20
2018-10-17T18:17:59.597Z,21.40
2018-10-17T18:20:34.738Z,22.10
2018-10-17T18:23:03.075Z,20.30
2018-10-17T18:25:31.331Z,19.82
2018-10-17T18:28:00.237Z,20.55
2018-10-17T18:30:28.398Z,19.70
2018-10-17T18:32:56.626Z,21.40
2018-10-17T18:35:24.875Z,19.30
2018-10-17T18:37:53.082Z,20.97
2018-10-17T18:40:21.344Z,21.90
2018-10-17T18:42:49.540Z,21.77
2018-10-17T18:45:17.777Z,19.42
2018-10-17T18:47:46.075Z,18.57
2018-10-17T18:50:14.532Z,23.00
2018-10-17T18:52:42.760Z,19.87
2018-10-17T18:55:10.983Z,22.03
2018-10-17T18:57:39.209Z,21.20
2018-10-17T19:00:08.857Z,22.33
2018-10-17T19:02:37.085Z,22.20
2018-10-17T19:05:05.334Z,21.30
2018-10-17T19:07:34.024Z,21.23
2018-10-17T19:10:02.290Z,19.80
2018-10-17T19:12:30.508Z,20.83
2018-10-17T19:14:58.827Z,20.50
2018-10-17T19:17:27.052Z,19.47
2018-10-17T19:19:55.256Z,19.70
2018-10-17T19:22:23.489Z,20.90
2018-10-17T19:24:51.753Z,20.43
2018-10-17T19:27:19.977Z,20.87
2018-10-17T19:29:48.228Z,20.87
2018-10-17T19:32:16.421Z,21.03
2018-10-17T19:34:51.876Z,21.50
2018-10-17T19:37:20.133Z,21.03
2018-10-17T19:39:48.608Z,20.80
2018-10-17T19:42:16.874Z,21.13
2018-10-17T19:44:45.116Z,22.30
2018-10-17T19:47:13.596Z,23.20
2018-10-17T19:49:45.532Z,23.67
2018-10-17T19:52:14.073Z,22.70
2018-10-17T19:54:42.284Z,22.40
2018-10-17T19:57:10.522Z,21.23
2018-10-17T19:59:38.811Z,21.57
2018-10-17T20:02:07.183Z,23.30
2018-10-17T20:04:38.263Z,20.20
2018-10-17T20:07:06.622Z,22.40
2018-10-17T20:09:34.839Z,20.20
2018-10-17T20:12:04.038Z,19.65
2018-10-17T20:14:32.240Z,20.47
2018-10-17T20:17:00.452Z,19.60
2018-10-17T20:19:28.671Z,17.60
2018-10-17T20:21:56.863Z,18.32
2018-10-17T20:24:25.055Z,20.70
2018-10-17T20:26:53.494Z,20.88
2018-10-17T20:29:21.679Z,22.80
2018-10-17T20:31:51.277Z,21.60
2018-10-17T20:34:19.736Z,22.25
2018-10-17T20:36:48.360Z,23.30
2018-10-17T20:39:16.589Z,22.10
2018-10-17T20:41:44.816Z,23.07
2018-10-17T20:44:13.792Z,22.80
2018-10-17T20:46:42.000Z,20.03
2018-10-17T20:49:10.612Z,22.30
2018-10-17T20:51:38.881Z,21.93
2018-10-17T20:54:07.901Z,22.93
2018-10-17T20:56:36.251Z,22.93
2018-10-17T20:59:04.768Z,22.20
2018-10-17T21:01:32.943Z,21.63
2018-10-17T21:04:01.165Z,22.37
2018-10-17T21:06:29.364Z,24.40
2018-10-17T21:08:57.540Z,22.10
2018-10-17T21:11:25.806Z,22.10
2018-10-17T21:13:54.098Z,22.43
2018-10-17T21:16:22.265Z,20.23
2018-10-17T21:18:50.513Z,20.92
2018-10-17T21:21:18.697Z,21.42
2018-10-17T21:23:46.899Z,17.00
2018-10-17T21:26:15.074Z,18.80
2018-10-17T21:28:43.212Z,18.63
2018-10-17T21:31:11.388Z,16.77
2018-10-17T21:33:39.733Z,18.93
2018-10-17T21:36:07.964Z,18.13
2018-10-17T21:38:36.232Z,21.70
2018-10-17T21:41:04.434Z,19.03
2018-10-17T21:43:32.744Z,20.70
2018-10-17T21:46:00.910Z,21.53
2018-10-17T21:48:29.089Z,20.53
2018-10-17T21:51:01.606Z,20.20
2018-10-17T21:53:29.783Z,21.33
2018-10-17T21:55:59.075Z,21.47
2018-10-17T21:58:27.277Z,18.27
2018-10-17T22:00:56.269Z,21.45
2018-10-17T22:06:02.548Z,21.63
2018-10-17T22:08:30.790Z,21.63
2018-10-17T22:10:59.000Z,22.80
2018-10-17T22:13:27.319Z,20.35
2018-10-17T22:15:55.519Z,21.07
2018-10-17T22:18:24.429Z,19.55
2018-10-17T22:20:52.596Z,17.40
2018-10-17T22:23:20.801Z,17.65
2018-10-17T22:25:49.004Z,18.87
2018-10-17T22:28:17.209Z,20.17
2018-10-17T22:30:45.384Z,19.40
2018-10-17T22:33:13.656Z,19.97
2018-10-17T22:35:46.453Z,19.30
2018-10-17T22:38:14.771Z,20.47
2018-10-17T22:40:42.968Z,24.10
2018-10-17T22:43:11.745Z,20.20
2018-10-17T22:45:39.948Z,21.65
2018-10-17T22:48:08.310Z,23.67
2018-10-17T22:50:36.656Z,21.68
2018-10-17T22:53:05.240Z,20.80
2018-10-17T22:55:33.420Z,21.53
2018-10-17T22:58:01.702Z,22.70
2018-10-17T23:00:29.860Z,23.67
2018-10-17T23:02:58.055Z,22.53
2018-10-17T23:05:26.242Z,21.17
2018-10-17T23:07:54.494Z,22.17
2018-10-17T23:10:22.611Z,22.63
2018-10-17T23:12:50.812Z,22.70
2018-10-17T23:15:18.956Z,23.90
2018-10-17T23:17:47.188Z,23.00
2018-10-17T23:20:16.297Z,22.40
2018-10-17T23:22:49.549Z,22.23
2018-10-17T23:25:17.728Z,21.00
2018-10-17T23:27:45.912Z,23.47
2018-10-17T23:30:14.080Z,22.67
2018-10-17T23:32:42.262Z,18.60
2018-10-17T23:35:10.419Z,18.37
2018-10-17T23:37:42.680Z,19.03
2018-10-17T23:40:10.903Z,20.93
2018-10-17T23:42:39.207Z,18.43
2018-10-17T23:45:07.572Z,19.35
2018-10-17T23:47:36.031Z,19.33
2018-10-17T23:50:04.301Z,18.23
2018-10-17T23:52:32.457Z,14.90
2018-10-17T23:55:00.631Z,12.20
2018-10-17T23:57:28.807Z,15.53
2018-10-17T23:59:56.997Z,16.57
